sensor_id;sensor_type;location;lat;lon;timestamp;pressure;altitude;pressure_sealevel;temperature;humidity
56052;BME280;41919;42.648;23.384;2022-12-29T00:01:22;95432.16;;;4.13;80.30
56052;BME280;41919;42.648;23.384;2022-12-29T00:03:47;95425.16;;;3.96;80.91
56052;BME280;41919;42.648;23.384;2022-12-29T00:06:13;95435.19;;;3.99;80.78
56052;BME280;41919;42.648;23.384;2022-12-29T00:08:38;95487.16;;;4.15;82.00
56052;BME280;41919;42.648;23.384;2022-12-29T00:11:10;95479.56;;;4.04;82.54
56052;BME280;41919;42.648;23.384;2022-12-29T00:13:36;95416.09;;;3.62;82.99
56052;BME280;41919;42.648;23.384;2022-12-29T00:16:21;95493.88;;;3.88;84.87
56052;BME280;41919;42.648;23.384;2022-12-29T00:18:46;95498.78;;;3.91;85.54
56052;BME280;41919;42.648;23.384;2022-12-29T00:21:17;95484.94;;;3.73;86.00
56052;BME280;41919;42.648;23.384;2022-12-29T00:24:02;95433.00;;;3.37;86.41
56052;BME280;41919;42.648;23.384;2022-12-29T00:26:47;95510.63;;;3.84;86.90
56052;BME280;41919;42.648;23.384;2022-12-29T00:29:31;95432.06;;;3.28;86.67
56052;BME280;41919;42.648;23.384;2022-12-29T00:32:15;95517.97;;;3.79;86.74
56052;BME280;41919;42.648;23.384;2022-12-29T00:34:59;95511.31;;;3.86;85.95
56052;BME280;41919;42.648;23.384;2022-12-29T00:37:41;95447.69;;;3.37;86.17
56052;BME280;41919;42.648;23.384;2022-12-29T00:40:27;95503.28;;;3.70;86.25
56052;BME280;41919;42.648;23.384;2022-12-29T00:43:11;95515.41;;;3.79;86.58
56052;BME280;41919;42.648;23.384;2022-12-29T00:45:55;95512.25;;;3.85;86.38
56052;BME280;41919;42.648;23.384;2022-12-29T00:48:20;95497.81;;;3.92;85.70
56052;BME280;41919;42.648;23.384;2022-12-29T00:51:07;95494.50;;;4.10;84.29
56052;BME280;41919;42.648;23.384;2022-12-29T00:53:33;95509.56;;;4.34;83.43
56052;BME280;41919;42.648;23.384;2022-12-29T00:55:58;95498.78;;;4.39;82.61
56052;BME280;41919;42.648;23.384;2022-12-29T00:58:27;95514.47;;;4.65;81.86
56052;BME280;41919;42.648;23.384;2022-12-29T01:00:52;95504.53;;;4.70;80.93
56052;BME280;41919;42.648;23.384;2022-12-29T01:03:18;95512.84;;;4.91;79.84
56052;BME280;41919;42.648;23.384;2022-12-29T01:05:43;95518.91;;;5.00;79.56
56052;BME280;41919;42.648;23.384;2022-12-29T01:08:09;95520.38;;;4.85;79.80
56052;BME280;41919;42.648;23.384;2022-12-29T01:10:34;95496.41;;;4.55;81.40
56052;BME280;41919;42.648;23.384;2022-12-29T01:13:00;95482.22;;;4.59;81.30
56052;BME280;41919;42.648;23.384;2022-12-29T01:15:25;95509.84;;;4.68;81.57
56052;BME280;41919;42.648;23.384;2022-12-29T01:17:50;95493.50;;;4.58;81.90
56052;BME280;41919;42.648;23.384;2022-12-29T01:20:16;95481.69;;;4.56;81.82
56052;BME280;41919;42.648;23.384;2022-12-29T01:22:42;95407.91;;;4.14;81.36
56052;BME280;41919;42.648;23.384;2022-12-29T01:25:08;95423.41;;;4.24;81.51
56052;BME280;41919;42.648;23.384;2022-12-29T01:27:34;95425.28;;;4.31;81.24
56052;BME280;41919;42.648;23.384;2022-12-29T01:29:59;95429.56;;;4.41;80.85
56052;BME280;41919;42.648;23.384;2022-12-29T01:32:25;95488.34;;;4.86;80.56
56052;BME280;41919;42.648;23.384;2022-12-29T01:34:50;95438.47;;;4.56;80.19
56052;BME280;41919;42.648;23.384;2022-12-29T01:37:15;95490.16;;;5.03;79.67
56052;BME280;41919;42.648;23.384;2022-12-29T01:39:41;95475.53;;;5.02;79.25
56052;BME280;41919;42.648;23.384;2022-12-29T01:42:16;95446.97;;;4.94;78.82
56052;BME280;41919;42.648;23.384;2022-12-29T01:44:54;95410.91;;;4.65;78.71
56052;BME280;41919;42.648;23.384;2022-12-29T01:49:57;95489.94;;;5.15;78.43
56052;BME280;41919;42.648;23.384;2022-12-29T01:52:25;95440.47;;;4.90;78.49
56052;BME280;41919;42.648;23.384;2022-12-29T01:54:54;95479.34;;;5.08;78.87
56052;BME280;41919;42.648;23.384;2022-12-29T01:57:25;95405.28;;;4.51;79.18
56052;BME280;41919;42.648;23.384;2022-12-29T02:00:19;95468.00;;;4.91;79.56
56052;BME280;41919;42.648;23.384;2022-12-29T02:02:47;95459.19;;;4.84;79.16
56052;BME280;41919;42.648;23.384;2022-12-29T02:05:46;95471.81;;;4.87;79.13
56052;BME280;41919;42.648;23.384;2022-12-29T02:08:13;95449.03;;;4.72;79.41
56052;BME280;41919;42.648;23.384;2022-12-29T02:10:39;95452.28;;;4.75;79.27
56052;BME280;41919;42.648;23.384;2022-12-29T02:13:05;95453.53;;;4.43;80.42
56052;BME280;41919;42.648;23.384;2022-12-29T02:18:51;95474.53;;;4.67;80.59
56052;BME280;41919;42.648;23.384;2022-12-29T02:27:31;95468.56;;;4.39;81.70
56052;BME280;41919;42.648;23.384;2022-12-29T02:46:02;95384.84;;;3.93;83.64
56052;BME280;41919;42.648;23.384;2022-12-29T02:48:41;95394.97;;;4.14;82.69
56052;BME280;41919;42.648;23.384;2022-12-29T02:51:12;95398.19;;;4.26;82.40
56052;BME280;41919;42.648;23.384;2022-12-29T02:53:43;95385.75;;;4.39;81.63
56052;BME280;41919;42.648;23.384;2022-12-29T02:56:27;95381.16;;;4.51;81.18
56052;BME280;41919;42.648;23.384;2022-12-29T02:58:52;95414.34;;;4.83;80.92
56052;BME280;41919;42.648;23.384;2022-12-29T03:07:52;95450.16;;;5.06;81.02
56052;BME280;41919;42.648;23.384;2022-12-29T03:10:43;95457.47;;;4.93;82.27
56052;BME280;41919;42.648;23.384;2022-12-29T03:13:23;95452.97;;;4.95;82.40
56052;BME280;41919;42.648;23.384;2022-12-29T03:19:10;95380.13;;;4.44;81.07
56052;BME280;41919;42.648;23.384;2022-12-29T03:21:43;95452.00;;;4.78;81.02
56052;BME280;41919;42.648;23.384;2022-12-29T03:24:31;95371.69;;;4.14;81.10
56052;BME280;41919;42.648;23.384;2022-12-29T03:26:59;95447.31;;;4.36;82.11
56052;BME280;41919;42.648;23.384;2022-12-29T03:29:28;95452.56;;;4.16;83.02
56052;BME280;41919;42.648;23.384;2022-12-29T03:31:55;95429.81;;;3.82;84.46
56052;BME280;41919;42.648;23.384;2022-12-29T03:34:22;95441.78;;;3.73;85.66
56052;BME280;41919;42.648;23.384;2022-12-29T03:37:00;95377.44;;;3.04;87.05
56052;BME280;41919;42.648;23.384;2022-12-29T03:39:28;95447.56;;;3.38;88.48
56052;BME280;41919;42.648;23.384;2022-12-29T03:42:07;95389.94;;;2.79;89.76
56052;BME280;41919;42.648;23.384;2022-12-29T03:44:37;95464.69;;;3.20;90.39
56052;BME280;41919;42.648;23.384;2022-12-29T03:47:05;95462.78;;;3.22;90.34
56052;BME280;41919;42.648;23.384;2022-12-29T03:49:30;95462.78;;;3.02;90.76
56052;BME280;41919;42.648;23.384;2022-12-29T03:51:56;95460.06;;;3.04;90.74
56052;BME280;41919;42.648;23.384;2022-12-29T03:54:22;95472.56;;;3.08;90.83
56052;BME280;41919;42.648;23.384;2022-12-29T03:56:47;95471.50;;;3.01;90.74
56052;BME280;41919;42.648;23.384;2022-12-29T03:59:13;95474.22;;;3.00;90.77
56052;BME280;41919;42.648;23.384;2022-12-29T04:01:38;95459.53;;;3.00;90.48
56052;BME280;41919;42.648;23.384;2022-12-29T04:04:03;95485.91;;;3.23;90.12
56052;BME280;41919;42.648;23.384;2022-12-29T04:06:29;95461.97;;;3.31;88.94
56052;BME280;41919;42.648;23.384;2022-12-29T04:08:54;95418.22;;;3.10;87.67
56052;BME280;41919;42.648;23.384;2022-12-29T04:11:21;95464.69;;;3.59;87.31
56052;BME280;41919;42.648;23.384;2022-12-29T04:13:46;95466.03;;;3.72;86.99
56052;BME280;41919;42.648;23.384;2022-12-29T04:16:12;95403.75;;;3.46;86.10
56052;BME280;41919;42.648;23.384;2022-12-29T04:18:37;95468.31;;;3.95;85.34
56052;BME280;41919;42.648;23.384;2022-12-29T04:21:03;95391.63;;;3.57;84.63
56052;BME280;41919;42.648;23.384;2022-12-29T04:23:35;95470.56;;;4.08;84.86
56052;BME280;41919;42.648;23.384;2022-12-29T04:26:01;95464.00;;;4.13;85.01
56052;BME280;41919;42.648;23.384;2022-12-29T04:28:27;95458.78;;;4.23;84.35
56052;BME280;41919;42.648;23.384;2022-12-29T04:30:53;95388.72;;;3.79;84.09
56052;BME280;41919;42.648;23.384;2022-12-29T04:33:19;95461.19;;;4.35;84.12
56052;BME280;41919;42.648;23.384;2022-12-29T04:35:45;95440.28;;;4.28;83.40
56052;BME280;41919;42.648;23.384;2022-12-29T04:38:11;95407.09;;;4.13;82.38
56052;BME280;41919;42.648;23.384;2022-12-29T04:40:38;95400.31;;;4.12;81.78
56052;BME280;41919;42.648;23.384;2022-12-29T04:43:04;95476.03;;;4.70;81.53
56052;BME280;41919;42.648;23.384;2022-12-29T04:45:29;95486.63;;;4.77;80.88
56052;BME280;41919;42.648;23.384;2022-12-29T04:47:55;95472.47;;;4.71;80.52
56052;BME280;41919;42.648;23.384;2022-12-29T04:50:20;95424.97;;;4.35;80.45
56052;BME280;41919;42.648;23.384;2022-12-29T04:52:46;95420.34;;;4.38;80.57
56052;BME280;41919;42.648;23.384;2022-12-29T04:55:12;95495.97;;;4.87;79.98
56052;BME280;41919;42.648;23.384;2022-12-29T04:57:37;95488.75;;;4.81;79.98
56052;BME280;41919;42.648;23.384;2022-12-29T05:00:04;95434.94;;;4.57;79.64
56052;BME280;41919;42.648;23.384;2022-12-29T05:02:29;95505.31;;;4.98;79.47
56052;BME280;41919;42.648;23.384;2022-12-29T05:04:55;95496.28;;;5.02;79.11
56052;BME280;41919;42.648;23.384;2022-12-29T05:07:20;95419.81;;;4.62;78.79
56052;BME280;41919;42.648;23.384;2022-12-29T05:09:46;95435.09;;;4.74;78.34
56052;BME280;41919;42.648;23.384;2022-12-29T05:12:11;95504.50;;;5.16;78.54
56052;BME280;41919;42.648;23.384;2022-12-29T05:14:36;95492.22;;;5.18;77.82
56052;BME280;41919;42.648;23.384;2022-12-29T05:17:02;95489.19;;;5.04;77.97
56052;BME280;41919;42.648;23.384;2022-12-29T05:19:27;95482.41;;;4.76;78.96
56052;BME280;41919;42.648;23.384;2022-12-29T05:21:53;95486.09;;;4.73;79.27
56052;BME280;41919;42.648;23.384;2022-12-29T05:24:19;95431.78;;;4.36;79.89
56052;BME280;41919;42.648;23.384;2022-12-29T05:26:45;95428.53;;;4.34;79.83
56052;BME280;41919;42.648;23.384;2022-12-29T05:29:10;95496.50;;;4.63;80.22
56052;BME280;41919;42.648;23.384;2022-12-29T05:31:36;95498.25;;;4.35;81.30
56052;BME280;41919;42.648;23.384;2022-12-29T05:34:02;95488.91;;;4.24;81.95
56052;BME280;41919;42.648;23.384;2022-12-29T05:36:27;95425.34;;;3.75;82.28
56052;BME280;41919;42.648;23.384;2022-12-29T05:38:52;95437.38;;;4.03;81.82
56052;BME280;41919;42.648;23.384;2022-12-29T05:41:18;95490.16;;;4.48;81.26
56052;BME280;41919;42.648;23.384;2022-12-29T05:43:43;95494.03;;;4.62;80.72
56052;BME280;41919;42.648;23.384;2022-12-29T05:46:09;95428.00;;;4.30;80.67
56052;BME280;41919;42.648;23.384;2022-12-29T05:48:34;95496.13;;;4.86;80.00
56052;BME280;41919;42.648;23.384;2022-12-29T05:51:00;95443.09;;;4.62;79.40
56052;BME280;41919;42.648;23.384;2022-12-29T05:53:25;95493.31;;;4.97;78.49
56052;BME280;41919;42.648;23.384;2022-12-29T05:55:50;95439.72;;;4.52;78.62
56052;BME280;41919;42.648;23.384;2022-12-29T05:58:17;95441.03;;;4.38;79.93
56052;BME280;41919;42.648;23.384;2022-12-29T06:00:42;95425.63;;;4.09;81.66
56052;BME280;41919;42.648;23.384;2022-12-29T06:03:08;95507.63;;;4.74;81.46
56052;BME280;41919;42.648;23.384;2022-12-29T06:05:34;95518.59;;;4.58;81.71
56052;BME280;41919;42.648;23.384;2022-12-29T06:07:59;95446.84;;;4.22;81.59
56052;BME280;41919;42.648;23.384;2022-12-29T06:10:25;95468.50;;;4.49;81.29
56052;BME280;41919;42.648;23.384;2022-12-29T06:12:50;95448.78;;;4.38;81.03
56052;BME280;41919;42.648;23.384;2022-12-29T06:15:16;95515.06;;;4.86;81.08
56052;BME280;41919;42.648;23.384;2022-12-29T06:17:41;95487.47;;;4.95;80.16
56052;BME280;41919;42.648;23.384;2022-12-29T06:20:08;95464.47;;;5.28;78.54
56052;BME280;41919;42.648;23.384;2022-12-29T06:22:34;95517.03;;;6.10;76.08
56052;BME280;41919;42.648;23.384;2022-12-29T06:25:00;95452.34;;;5.73;75.15
56052;BME280;41919;42.648;23.384;2022-12-29T06:27:26;95519.06;;;6.33;74.42
56052;BME280;41919;42.648;23.384;2022-12-29T06:29:52;95514.03;;;6.57;73.72
56052;BME280;41919;42.648;23.384;2022-12-29T06:32:17;95474.03;;;6.42;72.79
56052;BME280;41919;42.648;23.384;2022-12-29T06:34:43;95520.34;;;6.97;71.90
56052;BME280;41919;42.648;23.384;2022-12-29T06:37:10;95519.78;;;7.28;70.67
56052;BME280;41919;42.648;23.384;2022-12-29T06:39:35;95506.94;;;7.26;69.70
56052;BME280;41919;42.648;23.384;2022-12-29T06:42:01;95515.94;;;7.81;68.36
56052;BME280;41919;42.648;23.384;2022-12-29T06:44:26;95535.94;;;7.97;67.65
56052;BME280;41919;42.648;23.384;2022-12-29T06:46:52;95534.78;;;8.57;66.36
56052;BME280;41919;42.648;23.384;2022-12-29T06:49:17;95516.97;;;9.09;63.52
56052;BME280;41919;42.648;23.384;2022-12-29T06:51:43;95531.75;;;8.85;63.92
56052;BME280;41919;42.648;23.384;2022-12-29T06:54:08;95532.13;;;8.66;64.07
56052;BME280;41919;42.648;23.384;2022-12-29T06:56:34;95533.16;;;8.32;64.77
56052;BME280;41919;42.648;23.384;2022-12-29T06:58:59;95533.50;;;8.20;65.15
56052;BME280;41919;42.648;23.384;2022-12-29T07:01:28;95543.59;;;7.99;64.97
56052;BME280;41919;42.648;23.384;2022-12-29T07:03:54;95525.97;;;6.84;69.05
56052;BME280;41919;42.648;23.384;2022-12-29T07:06:20;95530.22;;;6.51;70.40
56052;BME280;41919;42.648;23.384;2022-12-29T07:08:45;95541.97;;;6.29;72.12
56052;BME280;41919;42.648;23.384;2022-12-29T07:11:11;95530.94;;;6.09;73.32
56052;BME280;41919;42.648;23.384;2022-12-29T07:13:36;95473.13;;;5.55;73.68
56052;BME280;41919;42.648;23.384;2022-12-29T07:16:09;95468.16;;;5.07;75.52
56052;BME280;41919;42.648;23.384;2022-12-29T07:18:35;95546.63;;;5.18;77.97
56052;BME280;41919;42.648;23.384;2022-12-29T07:21:01;95468.63;;;4.75;78.05
56052;BME280;41919;42.648;23.384;2022-12-29T07:23:26;95472.41;;;4.81;78.24
56052;BME280;41919;42.648;23.384;2022-12-29T07:26:02;95523.41;;;5.62;77.09
56052;BME280;41919;42.648;23.384;2022-12-29T07:28:29;95532.78;;;6.77;72.59
56052;BME280;41919;42.648;23.384;2022-12-29T07:30:55;95531.06;;;8.11;67.74
56052;BME280;41919;42.648;23.384;2022-12-29T07:33:20;95529.22;;;8.69;64.40
56052;BME280;41919;42.648;23.384;2022-12-29T07:35:45;95533.38;;;9.49;62.15
56052;BME280;41919;42.648;23.384;2022-12-29T07:38:11;95463.84;;;10.17;58.39
56052;BME280;41919;42.648;23.384;2022-12-29T07:40:36;95521.63;;;10.96;55.71
56052;BME280;41919;42.648;23.384;2022-12-29T07:43:02;95520.44;;;11.14;55.24
56052;BME280;41919;42.648;23.384;2022-12-29T07:45:29;95476.63;;;11.81;52.89
56052;BME280;41919;42.648;23.384;2022-12-29T07:47:55;95527.41;;;12.58;49.67
56052;BME280;41919;42.648;23.384;2022-12-29T07:50:20;95526.63;;;11.86;51.49
56052;BME280;41919;42.648;23.384;2022-12-29T07:52:46;95529.19;;;12.85;49.55
56052;BME280;41919;42.648;23.384;2022-12-29T07:55:14;95467.25;;;12.14;50.27
56052;BME280;41919;42.648;23.384;2022-12-29T07:57:39;95487.00;;;12.45;49.63
56052;BME280;41919;42.648;23.384;2022-12-29T08:00:05;95477.03;;;12.69;47.94
56052;BME280;41919;42.648;23.384;2022-12-29T08:02:30;95539.56;;;13.00;47.99
56052;BME280;41919;42.648;23.384;2022-12-29T08:04:56;95535.78;;;13.71;46.70
56052;BME280;41919;42.648;23.384;2022-12-29T08:07:21;95496.81;;;14.41;43.88
56052;BME280;41919;42.648;23.384;2022-12-29T08:09:47;95544.75;;;14.03;45.37
56052;BME280;41919;42.648;23.384;2022-12-29T08:12:13;95497.25;;;13.98;44.48
56052;BME280;41919;42.648;23.384;2022-12-29T08:14:39;95414.59;;;13.81;44.14
56052;BME280;41919;42.648;23.384;2022-12-29T08:17:04;95474.44;;;15.42;40.77
56052;BME280;41919;42.648;23.384;2022-12-29T08:19:30;95485.59;;;15.44;40.34
56052;BME280;41919;42.648;23.384;2022-12-29T08:21:55;95539.56;;;15.67;41.05
56052;BME280;41919;42.648;23.384;2022-12-29T08:24:20;95537.56;;;16.01;40.03
56052;BME280;41919;42.648;23.384;2022-12-29T08:26:46;95476.22;;;15.55;40.32
56052;BME280;41919;42.648;23.384;2022-12-29T08:29:11;95478.47;;;15.83;38.57
56052;BME280;41919;42.648;23.384;2022-12-29T08:31:37;95520.84;;;15.82;39.46
56052;BME280;41919;42.648;23.384;2022-12-29T08:34:03;95532.84;;;16.10;39.13
56052;BME280;41919;42.648;23.384;2022-12-29T08:36:29;95478.50;;;16.52;38.78
56052;BME280;41919;42.648;23.384;2022-12-29T08:38:56;95512.47;;;17.11;37.37
56052;BME280;41919;42.648;23.384;2022-12-29T08:41:21;95525.81;;;17.64;36.37
56052;BME280;41919;42.648;23.384;2022-12-29T08:43:47;95523.22;;;17.28;36.39
56052;BME280;41919;42.648;23.384;2022-12-29T08:46:13;95517.88;;;17.64;36.13
56052;BME280;41919;42.648;23.384;2022-12-29T08:48:39;95459.94;;;18.76;34.00
56052;BME280;41919;42.648;23.384;2022-12-29T08:51:04;95503.38;;;21.03;30.74
56052;BME280;41919;42.648;23.384;2022-12-29T08:53:30;95516.28;;;22.10;28.96
56052;BME280;41919;42.648;23.384;2022-12-29T08:55:57;95485.41;;;21.54;28.92
56052;BME280;41919;42.648;23.384;2022-12-29T08:58:24;95513.44;;;21.62;29.29
56052;BME280;41919;42.648;23.384;2022-12-29T09:00:52;95520.69;;;20.84;30.11
56052;BME280;41919;42.648;23.384;2022-12-29T09:03:18;95489.44;;;22.11;28.58
56052;BME280;41919;42.648;23.384;2022-12-29T09:05:48;95465.50;;;21.35;28.84
56052;BME280;41919;42.648;23.384;2022-12-29T09:08:13;95499.94;;;20.64;30.48
56052;BME280;41919;42.648;23.384;2022-12-29T09:10:38;95486.69;;;21.74;29.01
56052;BME280;41919;42.648;23.384;2022-12-29T09:13:04;95492.22;;;22.64;27.74
56052;BME280;41919;42.648;23.384;2022-12-29T09:15:29;95437.13;;;23.28;26.11
56052;BME280;41919;42.648;23.384;2022-12-29T09:17:55;95442.59;;;23.95;26.12
56052;BME280;41919;42.648;23.384;2022-12-29T09:20:20;95490.66;;;24.72;26.53
56052;BME280;41919;42.648;23.384;2022-12-29T09:22:47;95429.50;;;24.34;24.75
56052;BME280;41919;42.648;23.384;2022-12-29T09:25:13;95489.56;;;24.83;25.21
56052;BME280;41919;42.648;23.384;2022-12-29T09:27:38;95488.50;;;24.74;25.25
56052;BME280;41919;42.648;23.384;2022-12-29T09:30:06;95428.72;;;24.18;24.97
56052;BME280;41919;42.648;23.384;2022-12-29T09:32:32;95484.66;;;23.46;26.59
56052;BME280;41919;42.648;23.384;2022-12-29T09:34:58;95479.44;;;23.93;25.93
56052;BME280;41919;42.648;23.384;2022-12-29T09:37:23;95473.59;;;23.96;25.89
56052;BME280;41919;42.648;23.384;2022-12-29T09:39:49;95471.91;;;23.69;25.46
56052;BME280;41919;42.648;23.384;2022-12-29T09:42:37;95435.59;;;22.84;26.92
56052;BME280;41919;42.648;23.384;2022-12-29T09:45:07;95473.59;;;23.12;26.37
56052;BME280;41919;42.648;23.384;2022-12-29T09:47:35;95454.81;;;22.11;28.12
56052;BME280;41919;42.648;23.384;2022-12-29T09:50:30;95465.50;;;22.17;27.70
56052;BME280;41919;42.648;23.384;2022-12-29T09:55:45;95423.44;;;21.27;28.71
56052;BME280;41919;42.648;23.384;2022-12-29T09:58:34;95458.06;;;20.71;29.74
56052;BME280;41919;42.648;23.384;2022-12-29T10:01:06;95460.25;;;19.72;31.56
56052;BME280;41919;42.648;23.384;2022-12-29T10:03:46;95444.53;;;18.85;32.53
56052;BME280;41919;42.648;23.384;2022-12-29T10:15:04;95400.06;;;17.57;34.89
56052;BME280;41919;42.648;23.384;2022-12-29T10:20:43;95437.50;;;17.84;34.88
56052;BME280;41919;42.648;23.384;2022-12-29T10:25:46;95433.22;;;17.11;36.37
56052;BME280;41919;42.648;23.384;2022-12-29T10:28:21;95395.97;;;16.63;36.72
56052;BME280;41919;42.648;23.384;2022-12-29T10:30:48;95424.34;;;16.50;37.44
56052;BME280;41919;42.648;23.384;2022-12-29T10:33:19;95436.94;;;16.04;38.40
56052;BME280;41919;42.648;23.384;2022-12-29T10:35:49;95371.84;;;14.84;39.97
56052;BME280;41919;42.648;23.384;2022-12-29T10:38:27;95417.22;;;14.79;40.78
56052;BME280;41919;42.648;23.384;2022-12-29T10:41:13;95427.88;;;14.32;42.94
56052;BME280;41919;42.648;23.384;2022-12-29T10:43:45;95314.09;;;12.24;45.58
56052;BME280;41919;42.648;23.384;2022-12-29T10:46:21;95428.00;;;12.63;47.66
56052;BME280;41919;42.648;23.384;2022-12-29T10:48:48;95428.03;;;12.69;47.76
56052;BME280;41919;42.648;23.384;2022-12-29T10:51:27;95417.75;;;12.33;49.03
56052;BME280;41919;42.648;23.384;2022-12-29T10:54:14;95412.69;;;11.96;49.98
56052;BME280;41919;42.648;23.384;2022-12-29T10:56:44;95423.25;;;11.60;51.28
56052;BME280;41919;42.648;23.384;2022-12-29T10:59:25;95356.38;;;11.08;51.98
56052;BME280;41919;42.648;23.384;2022-12-29T11:06:57;95399.03;;;12.01;50.78
56052;BME280;41919;42.648;23.384;2022-12-29T11:09:28;95380.09;;;11.99;50.54
56052;BME280;41919;42.648;23.384;2022-12-29T11:11:55;95382.41;;;11.66;51.43
56052;BME280;41919;42.648;23.384;2022-12-29T11:14:31;95393.78;;;12.01;50.81
56052;BME280;41919;42.648;23.384;2022-12-29T11:17:02;95372.66;;;11.81;50.85
56052;BME280;41919;42.648;23.384;2022-12-29T11:19:32;95350.78;;;11.61;51.13
56052;BME280;41919;42.648;23.384;2022-12-29T11:22:25;95375.41;;;11.94;51.33
56052;BME280;41919;42.648;23.384;2022-12-29T11:24:53;95379.69;;;12.02;50.99
56052;BME280;41919;42.648;23.384;2022-12-29T11:27:24;95367.44;;;11.53;52.20
56052;BME280;41919;42.648;23.384;2022-12-29T11:29:52;95310.78;;;10.95;52.82
56052;BME280;41919;42.648;23.384;2022-12-29T11:32:26;95376.84;;;11.47;52.37
56052;BME280;41919;42.648;23.384;2022-12-29T11:34:52;95367.88;;;11.35;53.26
56052;BME280;41919;42.648;23.384;2022-12-29T11:37:21;95383.66;;;11.42;53.39
56052;BME280;41919;42.648;23.384;2022-12-29T11:39:58;95295.22;;;11.09;53.05
56052;BME280;41919;42.648;23.384;2022-12-29T11:42:41;95364.09;;;11.66;52.56
56052;BME280;41919;42.648;23.384;2022-12-29T11:45:18;95374.28;;;11.82;52.14
56052;BME280;41919;42.648;23.384;2022-12-29T11:47:47;95362.25;;;11.88;51.80
56052;BME280;41919;42.648;23.384;2022-12-29T11:50:22;95322.94;;;11.53;52.02
56052;BME280;41919;42.648;23.384;2022-12-29T11:53:00;95371.09;;;11.87;51.83
56052;BME280;41919;42.648;23.384;2022-12-29T11:55:27;95308.06;;;11.60;51.48
56052;BME280;41919;42.648;23.384;2022-12-29T11:57:55;95367.97;;;11.98;51.73
56052;BME280;41919;42.648;23.384;2022-12-29T12:00:23;95349.88;;;12.03;51.46
56052;BME280;41919;42.648;23.384;2022-12-29T12:03:22;95364.19;;;12.01;51.40
56052;BME280;41919;42.648;23.384;2022-12-29T12:06:00;95306.09;;;11.62;51.24
56052;BME280;41919;42.648;23.384;2022-12-29T12:14:10;95357.91;;;12.02;51.48
56052;BME280;41919;42.648;23.384;2022-12-29T12:16:50;95347.97;;;11.90;52.18
56052;BME280;41919;42.648;23.384;2022-12-29T12:19:48;95347.19;;;11.96;52.01
56052;BME280;41919;42.648;23.384;2022-12-29T12:22:38;95277.91;;;11.64;51.92
56052;BME280;41919;42.648;23.384;2022-12-29T12:25:18;95347.09;;;12.11;51.50
56052;BME280;41919;42.648;23.384;2022-12-29T12:27:53;95273.75;;;11.76;51.44
56052;BME280;41919;42.648;23.384;2022-12-29T12:30:28;95335.44;;;12.21;51.24
56052;BME280;41919;42.648;23.384;2022-12-29T12:35:37;95345.41;;;11.97;52.18
56052;BME280;41919;42.648;23.384;2022-12-29T12:38:19;95268.66;;;11.68;51.67
56052;BME280;41919;42.648;23.384;2022-12-29T12:41:11;95338.25;;;12.12;51.62
56052;BME280;41919;42.648;23.384;2022-12-29T12:46:19;95340.94;;;11.91;52.26
56052;BME280;41919;42.648;23.384;2022-12-29T13:00:11;95338.44;;;12.11;52.20
56052;BME280;41919;42.648;23.384;2022-12-29T13:02:54;95341.63;;;12.06;52.16
56052;BME280;41919;42.648;23.384;2022-12-29T13:11:02;95341.28;;;11.88;52.76
56052;BME280;41919;42.648;23.384;2022-12-29T13:13:48;95343.47;;;11.84;52.67
56052;BME280;41919;42.648;23.384;2022-12-29T13:18:58;95310.16;;;11.15;54.69
56052;BME280;41919;42.648;23.384;2022-12-29T13:21:50;95285.75;;;11.08;54.96
56052;BME280;41919;42.648;23.384;2022-12-29T13:27:23;95339.31;;;11.33;54.75
56052;BME280;41919;42.648;23.384;2022-12-29T13:30:03;95348.31;;;11.31;55.55
56052;BME280;41919;42.648;23.384;2022-12-29T13:32:45;95354.81;;;11.13;55.75
56052;BME280;41919;42.648;23.384;2022-12-29T13:38:18;95295.28;;;10.72;56.04
56052;BME280;41919;42.648;23.384;2022-12-29T13:40:50;95339.78;;;11.01;56.46
56052;BME280;41919;42.648;23.384;2022-12-29T13:43:18;95328.09;;;10.96;56.41
56052;BME280;41919;42.648;23.384;2022-12-29T13:45:45;95340.81;;;10.99;56.54
56052;BME280;41919;42.648;23.384;2022-12-29T13:48:28;95347.63;;;11.01;56.86
56052;BME280;41919;42.648;23.384;2022-12-29T13:50:59;95349.53;;;11.07;56.85
56052;BME280;41919;42.648;23.384;2022-12-29T13:56:15;95327.03;;;11.12;56.63
56052;BME280;41919;42.648;23.384;2022-12-29T14:02:09;95277.47;;;10.61;56.53
56052;BME280;41919;42.648;23.384;2022-12-29T14:04:55;95270.16;;;10.20;57.92
56052;BME280;41919;42.648;23.384;2022-12-29T14:07:21;95359.25;;;10.40;58.94
56052;BME280;41919;42.648;23.384;2022-12-29T14:09:54;95356.63;;;10.55;58.66
56052;BME280;41919;42.648;23.384;2022-12-29T14:12:31;95354.72;;;10.64;58.83
56052;BME280;41919;42.648;23.384;2022-12-29T14:17:35;95350.66;;;10.61;58.08
56052;BME280;41919;42.648;23.384;2022-12-29T14:20:02;95288.28;;;10.36;58.00
56052;BME280;41919;42.648;23.384;2022-12-29T14:22:29;95343.50;;;10.70;57.96
56052;BME280;41919;42.648;23.384;2022-12-29T14:24:55;95304.72;;;10.52;57.59
56052;BME280;41919;42.648;23.384;2022-12-29T14:29:47;95350.88;;;10.81;57.77
56052;BME280;41919;42.648;23.384;2022-12-29T14:37:35;95367.78;;;10.64;58.58
56052;BME280;41919;42.648;23.384;2022-12-29T14:42:32;95372.38;;;10.62;58.61
56052;BME280;41919;42.648;23.384;2022-12-29T14:45:28;95373.63;;;10.66;58.70
56052;BME280;41919;42.648;23.384;2022-12-29T14:47:55;95363.91;;;10.59;58.33
56052;BME280;41919;42.648;23.384;2022-12-29T14:52:54;95381.13;;;10.54;58.73
56052;BME280;41919;42.648;23.384;2022-12-29T14:55:44;95382.31;;;10.51;59.25
56052;BME280;41919;42.648;23.384;2022-12-29T14:58:31;95382.06;;;10.46;59.17
56052;BME280;41919;42.648;23.384;2022-12-29T15:00:59;95327.03;;;10.03;59.66
56052;BME280;41919;42.648;23.384;2022-12-29T15:03:31;95375.38;;;10.29;60.20
56052;BME280;41919;42.648;23.384;2022-12-29T15:06:07;95380.78;;;10.27;60.23
56052;BME280;41919;42.648;23.384;2022-12-29T15:08:47;95381.94;;;10.25;60.05